Time;durP1;ratioP1;P1;durP2;ratioP2;P2;SDS_P1;SDS_P2;PMS_P1;PMS_P2;Temp;Humidity;BMP_temperature;BMP_pressure;BME280_temperature;BME280_humidity;BME280_pressure;Samples;Min_cycle;Max_cycle;Signal;HPM_P1;HPM_P2
2021/10/29 00:02:25;;;;;;;0.50;0.40;;;16.90;76.10;;;;;;5102588;28;20024;-38
2021/10/29 00:04:51;;;;;;;0.47;0.43;;;17.00;76.20;;;;;;5103348;28;20028;-37
2021/10/29 00:07:18;;;;;;;0.40;0.40;;;17.00;76.30;;;;;;5103098;28;20024;-38
2021/10/29 00:09:45;;;;;;;0.60;0.40;;;17.00;76.20;;;;;;5103011;28;20062;-38
2021/10/29 00:12:12;;;;;;;0.53;0.40;;;17.00;76.00;;;;;;5101498;28;20089;-38
2021/10/29 00:14:39;;;;;;;0.40;0.40;;;17.00;76.20;;;;;;5103126;28;20060;-37
2021/10/29 00:17:06;;;;;;;0.40;0.30;;;17.00;76.30;;;;;;5102822;28;20062;-38
2021/10/29 00:19:32;;;;;;;0.40;0.40;;;17.00;76.30;;;;;;5101796;28;20069;-38
2021/10/29 00:21:58;;;;;;;0.60;0.57;;;17.00;76.20;;;;;;5102697;28;20035;-38
2021/10/29 00:24:24;;;;;;;0.50;0.50;;;17.00;76.10;;;;;;5103000;28;20032;-37
2021/10/29 00:26:50;;;;;;;0.70;0.50;;;17.00;76.10;;;;;;5102900;28;20039;-37
2021/10/29 00:29:17;;;;;;;0.88;0.30;;;17.00;76.20;;;;;;5102880;28;20028;-38
2021/10/29 00:31:43;;;;;;;0.55;0.50;;;17.00;76.20;;;;;;5102306;28;20065;-37
2021/10/29 00:34:09;;;;;;;0.50;0.50;;;16.90;76.20;;;;;;5102943;28;20024;-37
2021/10/29 00:36:35;;;;;;;0.40;0.30;;;16.90;76.20;;;;;;5102476;28;20036;-37
2021/10/29 00:39:01;;;;;;;0.50;0.43;;;17.00;76.30;;;;;;5101978;28;20484;-38
2021/10/29 00:41:27;;;;;;;0.95;0.50;;;16.90;76.20;;;;;;5102012;28;20028;-38
2021/10/29 00:43:56;;;;;;;0.63;0.50;;;16.90;76.20;;;;;;5102567;28;20044;-38
2021/10/29 00:46:23;;;;;;;0.60;0.50;;;16.90;76.20;;;;;;5102527;28;20043;-37
2021/10/29 00:48:50;;;;;;;0.40;0.30;;;16.90;76.40;;;;;;5102906;28;20032;-38
2021/10/29 00:51:18;;;;;;;0.60;0.50;;;16.90;76.40;;;;;;5100936;28;20115;-37
2021/10/29 00:53:44;;;;;;;1.00;0.43;;;16.90;76.40;;;;;;5101526;28;20075;-38
2021/10/29 00:56:10;;;;;;;0.90;0.45;;;16.90;76.40;;;;;;5102673;28;20050;-38
2021/10/29 00:58:36;;;;;;;0.60;0.40;;;16.90;76.40;;;;;;5102634;28;20735;-38
2021/10/29 01:01:03;;;;;;;0.43;0.43;;;16.90;76.40;;;;;;5100770;28;20039;-37
2021/10/29 01:03:30;;;;;;;0.60;0.50;;;16.90;76.40;;;;;;5101379;28;20092;-37
2021/10/29 01:05:56;;;;;;;0.55;0.50;;;16.90;76.40;;;;;;5102269;28;20043;-38
2021/10/29 01:08:22;;;;;;;0.40;0.40;;;16.90;76.40;;;;;;5084619;28;20050;-38
2021/10/29 01:10:49;;;;;;;0.52;0.47;;;16.90;76.40;;;;;;5102402;28;20048;-38
2021/10/29 01:13:16;;;;;;;0.60;0.50;;;16.90;76.50;;;;;;5102181;28;20039;-37
2021/10/29 01:15:43;;;;;;;0.40;0.40;;;16.90;76.40;;;;;;5102402;28;20032;-37
2021/10/29 01:18:09;;;;;;;0.40;0.40;;;16.90;76.40;;;;;;5102549;28;20818;-38
2021/10/29 01:20:36;;;;;;;0.90;0.50;;;16.90;76.40;;;;;;5101428;28;20407;-37
2021/10/29 01:23:02;;;;;;;0.40;0.40;;;16.90;76.40;;;;;;5105014;28;20032;-37
2021/10/29 01:25:28;;;;;;;0.70;0.50;;;16.90;76.50;;;;;;5104877;28;20032;-37
2021/10/29 01:27:54;;;;;;;0.52;0.50;;;16.90;76.50;;;;;;5106382;28;20067;-38
2021/10/29 01:30:20;;;;;;;0.50;0.43;;;16.90;76.50;;;;;;5106069;28;20024;-38
2021/10/29 01:32:47;;;;;;;1.40;0.50;;;16.90;76.60;;;;;;5106038;28;20034;-38
2021/10/29 01:35:13;;;;;;;0.60;0.40;;;16.90;76.60;;;;;;5102638;28;20061;-38
2021/10/29 01:37:40;;;;;;;0.65;0.52;;;16.90;76.60;;;;;;5104634;28;20057;-37
2021/10/29 01:40:11;;;;;;;0.52;0.52;;;16.90;76.60;;;;;;5106134;28;20038;-38
2021/10/29 01:42:37;;;;;;;0.50;0.45;;;16.90;77.10;;;;;;5105837;28;20396;-38
2021/10/29 01:45:05;;;;;;;0.60;0.40;;;16.90;76.50;;;;;;5104623;28;20020;-37
2021/10/29 01:47:32;;;;;;;2.00;0.60;;;16.90;76.50;;;;;;5104391;28;20024;-38
2021/10/29 01:49:58;;;;;;;0.50;0.50;;;16.90;76.60;;;;;;5105858;28;20025;-37
2021/10/29 01:52:25;;;;;;;0.70;0.60;;;16.90;76.50;;;;;;5105676;28;20726;-38
2021/10/29 01:54:51;;;;;;;0.63;0.52;;;16.90;76.60;;;;;;5105905;28;20055;-38
2021/10/29 01:57:17;;;;;;;0.57;0.43;;;16.90;76.60;;;;;;5105558;28;20042;-38
2021/10/29 01:59:43;;;;;;;0.57;0.40;;;16.90;76.50;;;;;;5105897;28;20120;-37
2021/10/29 02:02:09;;;;;;;0.50;0.50;;;16.90;76.50;;;;;;5085616;28;20101;-38
2021/10/29 02:04:35;;;;;;;0.90;0.60;;;16.90;76.60;;;;;;5085448;28;20028;-37
2021/10/29 02:07:02;;;;;;;0.50;0.50;;;16.90;76.70;;;;;;5101775;28;20046;-38
2021/10/29 02:09:28;;;;;;;2.95;0.50;;;16.90;76.60;;;;;;5104987;28;20562;-38
2021/10/29 02:11:54;;;;;;;0.50;0.40;;;16.90;76.60;;;;;;5105497;28;20035;-38
2021/10/29 02:14:21;;;;;;;0.50;0.47;;;16.90;76.70;;;;;;5105397;28;20024;-38
2021/10/29 02:16:47;;;;;;;0.50;0.50;;;16.90;76.60;;;;;;5105338;28;20131;-38
2021/10/29 02:19:13;;;;;;;0.50;0.50;;;16.90;76.70;;;;;;5105538;28;20028;-38
2021/10/29 02:21:40;;;;;;;1.60;0.60;;;16.90;76.70;;;;;;5105298;28;20050;-38
2021/10/29 02:24:06;;;;;;;0.60;0.50;;;16.90;76.70;;;;;;5103852;28;20032;-38
2021/10/29 02:26:34;;;;;;;0.45;0.45;;;16.90;76.70;;;;;;5103815;28;20108;-37
2021/10/29 02:29:00;;;;;;;0.50;0.40;;;16.90;76.60;;;;;;5103784;28;20077;-38
2021/10/29 02:31:26;;;;;;;0.50;0.50;;;16.90;76.60;;;;;;5104985;28;20051;-38
2021/10/29 02:33:53;;;;;;;0.90;0.50;;;16.90;76.70;;;;;;5103721;28;20024;-38
2021/10/29 02:36:20;;;;;;;0.70;0.50;;;16.80;76.50;;;;;;5104319;28;20036;-37
2021/10/29 02:38:46;;;;;;;0.60;0.60;;;16.90;76.60;;;;;;5090828;28;20040;-38
2021/10/29 02:41:13;;;;;;;0.52;0.50;;;16.80;76.50;;;;;;5104973;28;20036;-37
2021/10/29 02:43:41;;;;;;;0.60;0.50;;;16.90;77.30;;;;;;5103603;28;20032;-38
2021/10/29 02:46:07;;;;;;;0.63;0.55;;;16.90;76.60;;;;;;5096971;28;20020;-38
2021/10/29 02:48:33;;;;;;;0.75;0.60;;;16.90;76.70;;;;;;5105091;28;20047;-38
2021/10/29 02:50:59;;;;;;;0.50;0.50;;;16.90;76.80;;;;;;5104814;28;20047;-38
2021/10/29 02:53:26;;;;;;;0.43;0.38;;;16.90;76.80;;;;;;5104652;28;20020;-37
2021/10/29 02:55:52;;;;;;;1.60;0.70;;;16.90;76.70;;;;;;5104653;28;20049;-38
2021/10/29 02:58:18;;;;;;;0.60;0.60;;;16.90;76.70;;;;;;5104796;28;20032;-38
2021/10/29 03:00:44;;;;;;;0.63;0.63;;;16.90;76.80;;;;;;5104702;28;20357;-37
2021/10/29 03:03:11;;;;;;;0.68;0.65;;;16.90;76.80;;;;;;5104390;28;20267;-37
2021/10/29 03:05:39;;;;;;;0.68;0.60;;;16.90;76.80;;;;;;5104211;28;20032;-37
2021/10/29 03:08:05;;;;;;;0.90;0.60;;;16.90;76.80;;;;;;5104643;28;20038;-38
2021/10/29 03:10:32;;;;;;;1.10;0.50;;;16.80;76.80;;;;;;5104339;28;20048;-38
2021/10/29 03:12:58;;;;;;;1.30;0.70;;;16.90;76.80;;;;;;5104151;28;20035;-38
2021/10/29 03:15:24;;;;;;;0.88;0.60;;;16.90;76.80;;;;;;5104505;28;20043;-38
2021/10/29 03:17:51;;;;;;;0.60;0.60;;;16.90;76.80;;;;;;5104246;28;20035;-37
2021/10/29 03:20:17;;;;;;;0.52;0.50;;;16.80;76.80;;;;;;5104464;28;20024;-38
2021/10/29 03:22:44;;;;;;;0.55;0.50;;;16.90;76.80;;;;;;5083990;28;20088;-37
2021/10/29 03:25:11;;;;;;;0.60;0.57;;;16.90;76.80;;;;;;5083920;28;20037;-38
2021/10/29 03:27:37;;;;;;;2.08;0.90;;;16.90;76.70;;;;;;5084017;28;20040;-38
2021/10/29 03:30:04;;;;;;;0.50;0.50;;;16.90;76.80;;;;;;5083895;28;20020;-38
2021/10/29 03:32:30;;;;;;;0.93;0.68;;;16.90;76.80;;;;;;5096362;28;20020;-37
2021/10/29 03:34:57;;;;;;;0.52;0.52;;;16.90;76.80;;;;;;5103789;28;20074;-38
2021/10/29 03:40:37;;;;;;;0.80;0.60;;;16.90;76.80;;;;;;5104070;28;20124;-38
2021/10/29 03:43:20;;;;;;;0.50;0.40;;;16.80;76.80;;;;;;5102376;28;20039;-38
2021/10/29 03:45:53;;;;;;;0.98;0.47;;;16.80;76.80;;;;;;5103551;28;20032;-37
2021/10/29 03:48:25;;;;;;;1.00;0.50;;;16.80;76.90;;;;;;5103840;28;20024;-38
2021/10/29 03:51:09;;;;;;;0.70;0.60;;;16.80;76.80;;;;;;5103208;28;20024;-38
2021/10/29 03:53:47;;;;;;;0.55;0.43;;;16.80;76.90;;;;;;5103744;28;20028;-37
2021/10/29 03:56:21;;;;;;;0.60;0.40;;;16.90;76.90;;;;;;5103749;28;20035;-38
2021/10/29 03:58:48;;;;;;;0.73;0.60;;;16.80;76.90;;;;;;5103660;28;20048;-38
2021/10/29 04:01:14;;;;;;;;;;;16.80;76.80;;;;;;5104039;28;20063;-38
2021/10/29 04:03:40;;;;;;;1.00;0.75;;;16.80;76.90;;;;;;5103457;28;19953;-38
2021/10/29 04:06:07;;;;;;;0.63;0.57;;;16.80;76.80;;;;;;5103282;28;20062;-38
2021/10/29 04:08:33;;;;;;;0.60;0.60;;;16.80;76.80;;;;;;5103570;28;20031;-38
2021/10/29 04:10:59;;;;;;;0.70;0.70;;;16.80;76.80;;;;;;5103367;28;20078;-38
2021/10/29 04:13:33;;;;;;;0.47;0.47;;;16.80;76.80;;;;;;5103110;28;20025;-38
2021/10/29 04:16:01;;;;;;;1.33;0.60;;;16.80;76.80;;;;;;5103132;28;20036;-38
2021/10/29 04:18:27;;;;;;;;;;;16.80;76.80;;;;;;5103869;28;20162;-37
2021/10/29 04:20:53;;;;;;;0.80;0.80;;;16.80;76.90;;;;;;5103129;28;20332;-37
2021/10/29 04:23:20;;;;;;;0.70;0.50;;;16.80;76.80;;;;;;5103467;28;20759;-38
2021/10/29 04:25:46;;;;;;;0.68;0.52;;;16.80;76.90;;;;;;5102852;28;20034;-38
2021/10/29 04:28:13;;;;;;;1.00;0.60;;;16.80;76.90;;;;;;5103401;28;20707;-38
2021/10/29 04:30:42;;;;;;;0.80;0.50;;;16.80;76.90;;;;;;5103070;28;20027;-38
2021/10/29 04:33:08;;;;;;;0.60;0.55;;;16.80;76.90;;;;;;5103089;28;20032;-38
2021/10/29 04:35:35;;;;;;;0.70;0.50;;;16.80;76.90;;;;;;5102641;28;20083;-38
2021/10/29 04:38:04;;;;;;;0.60;0.60;;;16.80;76.90;;;;;;5103023;28;20043;-38
2021/10/29 04:40:30;;;;;;;0.80;0.70;;;16.80;76.90;;;;;;5102956;28;20024;-38
2021/10/29 04:42:56;;;;;;;0.75;0.50;;;16.80;76.90;;;;;;5103031;28;20040;-37
2021/10/29 04:45:22;;;;;;;0.60;0.60;;;16.80;76.90;;;;;;5097958;28;20027;-38
2021/10/29 04:47:48;;;;;;;0.90;0.70;;;16.80;76.90;;;;;;5103048;28;20031;-38
2021/10/29 04:50:15;;;;;;;0.70;0.70;;;16.80;76.90;;;;;;5101536;28;20775;-37
2021/10/29 04:52:41;;;;;;;0.83;0.80;;;16.80;77.00;;;;;;5102902;28;20384;-37
2021/10/29 04:55:08;;;;;;;0.57;0.50;;;16.80;77.00;;;;;;5102684;28;20497;-38
2021/10/29 04:57:34;;;;;;;0.75;0.75;;;16.80;77.00;;;;;;5104995;28;20501;-38
2021/10/29 05:00:04;;;;;;;0.85;0.60;;;16.80;77.00;;;;;;5106989;28;20028;-38
2021/10/29 05:02:30;;;;;;;0.90;0.70;;;16.80;77.00;;;;;;5107065;28;20051;-38
2021/10/29 05:04:56;;;;;;;1.00;0.68;;;16.80;77.00;;;;;;5106684;28;20477;-39
2021/10/29 05:07:22;;;;;;;0.63;0.40;;;16.80;77.00;;;;;;5106586;28;20047;-38
2021/10/29 05:09:48;;;;;;;0.88;0.70;;;16.80;77.00;;;;;;5106579;28;20036;-38
2021/10/29 05:12:14;;;;;;;0.70;0.60;;;16.80;77.00;;;;;;5106890;28;20043;-38
2021/10/29 05:14:40;;;;;;;0.60;0.60;;;16.80;77.00;;;;;;5106429;28;20035;-38
2021/10/29 05:17:07;;;;;;;1.13;0.60;;;16.80;77.00;;;;;;5106857;28;20035;-37
2021/10/29 05:19:33;;;;;;;1.95;0.70;;;16.80;77.00;;;;;;5106610;28;20028;-37
2021/10/29 05:21:59;;;;;;;0.70;0.50;;;16.80;76.90;;;;;;5106380;28;20027;-38
2021/10/29 05:24:25;;;;;;;1.00;0.60;;;16.80;76.90;;;;;;5106651;28;20038;-38
2021/10/29 05:26:51;;;;;;;0.60;0.60;;;16.80;76.90;;;;;;5106240;28;20035;-37
2021/10/29 05:29:17;;;;;;;0.73;0.70;;;16.80;76.90;;;;;;5106272;28;20032;-38
2021/10/29 05:31:44;;;;;;;0.70;0.70;;;16.80;76.90;;;;;;5106412;28;20016;-38
2021/10/29 05:34:10;;;;;;;0.70;0.60;;;16.70;76.90;;;;;;5106447;28;20028;-38
2021/10/29 05:36:36;;;;;;;2.15;0.80;;;16.80;76.90;;;;;;5105787;28;20039;-37
2021/10/29 05:39:06;;;;;;;1.08;0.80;;;16.80;76.90;;;;;;5106256;28;20020;-38
2021/10/29 05:41:32;;;;;;;0.50;0.50;;;16.80;76.90;;;;;;5106341;28;20492;-38
2021/10/29 05:44:00;;;;;;;2.28;0.70;;;16.80;76.90;;;;;;5106039;28;20035;-38
2021/10/29 05:46:32;;;;;;;0.82;0.70;;;16.80;76.90;;;;;;5105843;28;20504;-40
2021/10/29 05:48:59;;;;;;;0.90;0.80;;;16.80;76.90;;;;;;5106214;28;20031;-38
2021/10/29 05:51:26;;;;;;;0.80;0.68;;;16.80;76.90;;;;;;5104564;28;20110;-38
2021/10/29 05:54:34;;;;;;;0.80;0.75;;;16.80;76.90;;;;;;5105937;28;20047;-38
2021/10/29 05:56:39;;;;;;;1.02;0.70;;;16.80;76.90;;;;;;5103898;28;20039;-37
2021/10/29 05:59:05;;;;;;;0.73;0.73;;;16.80;76.90;;;;;;5104673;28;20081;-38
2021/10/29 06:01:32;;;;;;;0.90;0.77;;;16.70;76.80;;;;;;5104237;28;20028;-38
2021/10/29 06:03:59;;;;;;;0.75;0.60;;;16.80;76.90;;;;;;5105691;28;20028;-37
2021/10/29 06:06:25;;;;;;;0.80;0.65;;;16.80;77.00;;;;;;5105087;28;20032;-38
2021/10/29 06:08:52;;;;;;;0.70;0.60;;;16.80;77.00;;;;;;5105790;28;20032;-37
2021/10/29 06:11:18;;;;;;;1.10;0.80;;;16.80;77.00;;;;;;5105513;28;20044;-38
2021/10/29 06:13:45;;;;;;;1.33;0.68;;;16.80;77.00;;;;;;5104209;28;20095;-37
2021/10/29 06:16:11;;;;;;;2.25;1.05;;;16.80;77.00;;;;;;5105245;28;20087;-38
2021/10/29 06:18:37;;;;;;;1.63;0.80;;;16.80;77.10;;;;;;5105421;28;20036;-38
2021/10/29 06:21:04;;;;;;;0.65;0.65;;;16.80;77.00;;;;;;5105328;28;20153;-38
2021/10/29 06:26:41;;;;;;;0.95;0.70;;;16.80;77.10;;;;;;5062175;28;20040;-37
2021/10/29 06:29:07;;;;;;;0.98;0.75;;;16.80;77.10;;;;;;5062191;28;20025;-37
2021/10/29 06:31:34;;;;;;;0.70;0.70;;;16.80;77.20;;;;;;5062292;28;20033;-37
2021/10/29 06:34:00;;;;;;;0.98;0.88;;;16.80;77.10;;;;;;5045805;28;20055;-38
2021/10/29 06:36:26;;;;;;;0.95;0.65;;;16.80;77.10;;;;;;5061488;28;20025;-38
2021/10/29 06:38:52;;;;;;;0.88;0.60;;;16.80;77.90;;;;;;5062130;28;20534;-37
2021/10/29 06:41:19;;;;;;;0.80;0.70;;;16.80;77.10;;;;;;5049836;28;20048;-38
2021/10/29 07:40:08;;;;;;;1.42;0.80;;;16.70;77.20;;;;;;5103760;28;20050;-38
2021/10/29 07:43:03;;;;;;;0.70;0.70;;;16.70;77.30;;;;;;5103824;28;20035;-38
2021/10/29 07:45:30;;;;;;;0.75;0.75;;;16.70;77.30;;;;;;5103776;28;20040;-38
2021/10/29 07:47:57;;;;;;;2.45;0.90;;;16.70;77.30;;;;;;5103509;28;20039;-38
2021/10/29 07:50:24;;;;;;;1.35;0.70;;;16.70;78.00;;;;;;5102103;28;20031;-38
2021/10/29 07:52:51;;;;;;;1.15;1.02;;;16.70;77.30;;;;;;5103492;28;20039;-38
2021/10/29 07:55:18;;;;;;;0.50;0.50;;;16.70;77.30;;;;;;5103655;28;20038;-38
2021/10/29 07:57:46;;;;;;;1.02;0.70;;;16.70;77.30;;;;;;5103180;28;20036;-38
2021/10/29 08:00:13;;;;;;;1.13;0.70;;;16.70;77.30;;;;;;5103407;28;20111;-38
2021/10/29 08:02:39;;;;;;;0.88;0.88;;;16.70;77.30;;;;;;5100367;28;20034;-38
2021/10/29 08:05:05;;;;;;;0.60;0.60;;;16.70;77.30;;;;;;5103290;28;20035;-38
2021/10/29 08:07:32;;;;;;;0.83;0.83;;;16.70;77.30;;;;;;5102943;28;20024;-38
2021/10/29 08:10:01;;;;;;;0.93;0.83;;;16.70;77.30;;;;;;5103089;28;20411;-38
2021/10/29 08:12:28;;;;;;;0.52;0.52;;;16.70;77.30;;;;;;5103236;28;20334;-38
2021/10/29 08:14:54;;;;;;;0.93;0.82;;;16.70;77.30;;;;;;5103328;28;20034;-38
2021/10/29 08:17:20;;;;;;;0.80;0.80;;;16.70;77.30;;;;;;5102729;28;20047;-38
2021/10/29 08:19:47;;;;;;;0.95;0.82;;;16.70;77.30;;;;;;5103036;28;20028;-37
2021/10/29 08:22:13;;;;;;;0.93;0.82;;;16.70;77.30;;;;;;5103087;28;20035;-38
2021/10/29 08:24:40;;;;;;;1.23;0.90;;;16.70;77.30;;;;;;5101758;28;20091;-38
2021/10/29 08:27:07;;;;;;;1.00;0.70;;;16.70;77.30;;;;;;5102686;28;20047;-38
2021/10/29 08:29:33;;;;;;;2.13;0.88;;;16.70;77.30;;;;;;5103059;28;20031;-38
2021/10/29 08:31:59;;;;;;;1.10;0.80;;;16.70;77.30;;;;;;5102837;28;20028;-38
2021/10/29 08:34:26;;;;;;;0.90;0.80;;;16.70;77.30;;;;;;5102823;28;20028;-38
2021/10/29 08:36:56;;;;;;;1.02;0.93;;;16.70;77.30;;;;;;5102295;28;20036;-37
2021/10/29 08:39:23;;;;;;;0.63;0.63;;;16.70;77.30;;;;;;5102664;28;20061;-38
2021/10/29 08:41:49;;;;;;;1.00;0.90;;;16.70;78.10;;;;;;5086403;28;20091;-38
2021/10/29 08:44:15;;;;;;;0.65;0.65;;;16.60;77.30;;;;;;5082716;28;20028;-38
2021/10/29 08:46:43;;;;;;;0.93;0.90;;;16.60;77.30;;;;;;5082402;28;20107;-39
2021/10/29 08:49:09;;;;;;;0.80;0.80;;;16.60;77.30;;;;;;5082280;28;20028;-38
2021/10/29 08:51:36;;;;;;;0.80;0.80;;;16.60;77.30;;;;;;5097962;28;20023;-38
2021/10/29 08:54:03;;;;;;;0.83;0.77;;;16.60;77.40;;;;;;5102585;28;20302;-38
2021/10/29 08:56:29;;;;;;;0.85;0.80;;;16.60;77.30;;;;;;5102721;28;20016;-38
2021/10/29 08:59:11;;;;;;;0.75;0.75;;;16.60;77.30;;;;;;5102565;28;20409;-38
2021/10/29 09:01:49;;;;;;;1.30;0.82;;;16.60;77.40;;;;;;5102510;28;20036;-38
2021/10/29 09:04:17;;;;;;;0.60;0.60;;;16.60;77.30;;;;;;5102631;28;20032;-38
2021/10/29 09:06:58;;;;;;;1.02;0.82;;;16.60;77.30;;;;;;5102168;28;20047;-38
2021/10/29 09:09:41;;;;;;;0.85;0.70;;;16.60;77.30;;;;;;5102121;28;20031;-38
2021/10/29 09:17:49;;;;;;;1.58;0.80;;;16.60;77.40;;;;;;5102312;28;20047;-38
2021/10/29 09:34:15;;;;;;;1.48;0.80;;;16.60;77.50;;;;;;5102377;28;20027;-38
2021/10/29 09:36:43;;;;;;;0.57;0.57;;;16.60;77.50;;;;;;5101709;28;20024;-38
2021/10/29 09:39:10;;;;;;;;;;;16.60;77.50;;;;;;5102485;28;20024;-38
2021/10/29 09:41:37;;;;;;;0.70;0.68;;;16.60;77.50;;;;;;5102333;28;19995;-38
2021/10/29 09:44:04;;;;;;;0.75;0.75;;;16.60;77.50;;;;;;5104774;28;20123;-38
2021/10/29 09:46:57;;;;;;;1.88;0.85;;;16.60;77.50;;;;;;5105767;28;20024;-38
2021/10/29 09:49:30;;;;;;;0.50;0.50;;;16.60;77.50;;;;;;5105596;28;20102;-38
2021/10/29 09:54:59;;;;;;;0.63;0.60;;;16.60;77.50;;;;;;5105854;28;20032;-37
2021/10/29 09:57:25;;;;;;;1.23;0.60;;;16.60;77.60;;;;;;5105655;28;20140;-38
2021/10/29 09:59:55;;;;;;;0.63;0.60;;;16.60;77.50;;;;;;5105307;28;20061;-38
2021/10/29 10:02:22;;;;;;;0.65;0.57;;;16.60;77.50;;;;;;5105251;28;20308;-38
2021/10/29 10:04:51;;;;;;;0.70;0.68;;;16.60;77.50;;;;;;5105565;28;20027;-38
2021/10/29 10:07:24;;;;;;;0.68;0.50;;;16.60;77.50;;;;;;5104988;28;20089;-38
2021/10/29 10:10:00;;;;;;;1.75;0.70;;;16.60;77.60;;;;;;5087350;28;20447;-38
2021/10/29 10:12:31;;;;;;;0.60;0.60;;;16.60;77.60;;;;;;5103926;28;20080;-38
2021/10/29 10:14:59;;;;;;;1.85;0.63;;;16.60;77.60;;;;;;5105287;28;20039;-38
2021/10/29 10:17:28;;;;;;;0.70;0.70;;;16.60;77.60;;;;;;5103828;28;20068;-38
2021/10/29 10:19:55;;;;;;;0.70;0.40;;;16.60;77.60;;;;;;5104991;28;20039;-38
2021/10/29 10:22:24;;;;;;;0.70;0.70;;;16.60;77.60;;;;;;5105001;28;20057;-38
2021/10/29 10:24:58;;;;;;;0.70;0.68;;;16.60;77.60;;;;;;5103990;28;20099;-38
2021/10/29 10:30:07;;;;;;;0.63;0.63;;;16.60;77.60;;;;;;5105041;28;20028;-38
2021/10/29 10:43:39;;;;;;;0.50;0.50;;;16.50;77.60;;;;;;5101747;28;20028;-38
2021/10/29 10:46:18;;;;;;;0.60;0.40;;;16.50;77.60;;;;;;5104597;28;20035;-38
2021/10/29 10:51:37;;;;;;;0.50;0.50;;;16.50;77.60;;;;;;5104475;28;20031;-38
2021/10/29 10:54:40;;;;;;;0.68;0.40;;;16.50;77.60;;;;;;5104045;28;20028;-38
2021/10/29 11:10:59;;;;;;;1.10;0.60;;;16.50;77.60;;;;;;5083571;28;20052;-38
2021/10/29 11:13:27;;;;;;;0.90;0.50;;;16.50;77.60;;;;;;5083859;28;20120;-38
2021/10/29 11:16:03;;;;;;;0.40;0.40;;;16.50;77.60;;;;;;5082356;28;20028;-38
2021/10/29 11:18:34;;;;;;;1.17;0.57;;;16.50;77.70;;;;;;5083765;28;20182;-38
2021/10/29 11:21:18;;;;;;;0.50;0.30;;;16.50;77.70;;;;;;5089510;28;20027;-38
2021/10/29 11:23:53;;;;;;;0.32;0.32;;;16.50;77.70;;;;;;5103680;28;20032;-38
2021/10/29 11:26:42;;;;;;;1.10;0.40;;;16.50;77.70;;;;;;5103792;28;20067;-38
2021/10/29 11:29:09;;;;;;;1.50;0.40;;;16.50;77.70;;;;;;5102547;28;20024;-38
2021/10/29 11:31:42;;;;;;;0.47;0.47;;;16.50;78.40;;;;;;5103738;28;20032;-38
2021/10/29 11:34:12;;;;;;;0.73;0.50;;;16.50;77.70;;;;;;5103617;28;20081;-38
2021/10/29 11:36:41;;;;;;;0.77;0.52;;;16.50;78.40;;;;;;5103247;28;20035;-38
2021/10/29 11:39:09;;;;;;;0.35;0.30;;;16.50;77.70;;;;;;5103805;28;20024;-37
2021/10/29 11:41:36;;;;;;;1.75;0.47;;;16.50;77.70;;;;;;5103634;28;20024;-38
2021/10/29 11:44:04;;;;;;;;;;;16.50;77.70;;;;;;5103778;28;20071;-38
2021/10/29 11:46:31;;;;;;;2.58;0.30;;;16.50;77.70;;;;;;5103462;28;19930;-38
2021/10/29 11:48:59;;;;;;;;;;;16.50;77.70;;;;;;5099600;28;20077;-37
2021/10/29 11:51:25;;;;;;;0.25;0.20;;;16.50;77.70;;;;;;5103410;28;20339;-38
2021/10/29 11:53:59;;;;;;;0.40;0.40;;;16.50;77.70;;;;;;5101872;28;20061;-38
2021/10/29 12:07:18;;;;;;;0.25;0.25;;;16.50;77.70;;;;;;5102494;28;20154;-38
2021/10/29 12:09:48;;;;;;;0.50;0.35;;;16.50;77.70;;;;;;5103069;28;20177;-38
2021/10/29 12:12:18;;;;;;;0.25;0.25;;;16.50;77.70;;;;;;5101581;28;20097;-38
2021/10/29 12:14:46;;;;;;;0.25;0.25;;;16.50;77.70;;;;;;5102827;28;20020;-38
2021/10/29 12:17:27;;;;;;;0.50;0.40;;;16.50;77.70;;;;;;5102798;28;20035;-38
2021/10/29 12:20:00;;;;;;;0.30;0.30;;;16.50;77.70;;;;;;5103164;28;20020;-38
2021/10/29 12:22:38;;;;;;;0.40;0.30;;;16.50;77.80;;;;;;5102704;28;20035;-38
2021/10/29 12:25:14;;;;;;;0.28;0.20;;;16.50;77.80;;;;;;5086195;28;20034;-38
2021/10/29 12:27:47;;;;;;;0.30;0.30;;;16.50;77.80;;;;;;5102835;28;20032;-37
2021/10/29 12:30:20;;;;;;;0.40;0.30;;;16.40;77.80;;;;;;5102780;28;20599;-37
2021/10/29 13:03:45;;;;;;;1.45;0.30;;;16.40;77.80;;;;;;5102212;28;20054;-38
2021/10/29 13:06:17;;;;;;;0.25;0.25;;;16.40;77.80;;;;;;5100976;28;20099;-38
2021/10/29 13:08:48;;;;;;;0.10;0.10;;;16.40;77.80;;;;;;5102257;28;20066;-38
2021/10/29 13:11:14;;;;;;;0.15;0.15;;;16.40;77.80;;;;;;5102205;28;20067;-38
2021/10/29 13:13:52;;;;;;;0.30;0.30;;;16.40;77.80;;;;;;5102204;28;20074;-38
2021/10/29 13:16:18;;;;;;;0.20;0.17;;;16.40;77.80;;;;;;5102595;28;20046;-37
2021/10/29 13:22:03;;;;;;;0.28;0.28;;;16.40;77.80;;;;;;5106395;28;20031;-38
2021/10/29 13:24:41;;;;;;;0.45;0.20;;;16.40;77.80;;;;;;5105967;28;20023;-37
2021/10/29 13:35:26;;;;;;;0.22;0.20;;;16.40;77.90;;;;;;5105614;28;20112;-37
2021/10/29 14:35:33;;;;;;;0.35;0.20;;;16.40;77.90;;;;;;5041509;28;20034;-38
2021/10/29 14:48:09;;;;;;;0.10;0.10;;;16.40;77.90;;;;;;5024947;28;20051;-38
2021/10/29 15:15:18;;;;;;;0.20;0.17;;;16.40;77.90;;;;;;5104312;28;20057;-38
2021/10/29 15:26:24;;;;;;;0.20;0.20;;;16.40;77.80;;;;;;5103634;28;20035;-38
2021/10/29 15:29:06;;;;;;;0.20;0.20;;;16.40;77.90;;;;;;5103894;28;20043;-37
2021/10/29 15:44:56;;;;;;;0.10;0.10;;;16.40;77.80;;;;;;5103693;28;20036;-37
2021/10/29 15:47:35;;;;;;;0.10;0.10;;;16.40;77.80;;;;;;5103088;28;20032;-38
2021/10/29 15:50:07;;;;;;;0.10;0.10;;;16.40;77.80;;;;;;5103356;28;20039;-38
2021/10/29 15:52:33;;;;;;;0.20;0.10;;;16.40;77.80;;;;;;5103407;28;20024;-38
2021/10/29 15:55:07;;;;;;;0.10;0.10;;;16.40;77.80;;;;;;5102618;28;20088;-37
2021/10/29 15:57:44;;;;;;;0.10;0.10;;;16.40;77.80;;;;;;5102890;28;20105;-38
2021/10/29 16:00:32;;;;;;;0.10;0.10;;;16.40;77.80;;;;;;5102315;28;20028;-37
2021/10/29 16:03:09;;;;;;;0.55;0.20;;;16.40;77.80;;;;;;5102898;28;20043;-38
2021/10/29 16:19:18;;;;;;;0.22;0.10;;;16.40;77.60;;;;;;5103142;28;20039;-38
2021/10/29 16:21:45;;;;;;;0.10;0.10;;;16.50;77.60;;;;;;5102817;28;20020;-38
2021/10/29 16:24:11;;;;;;;0.10;0.10;;;16.40;77.50;;;;;;5102987;28;20024;-37
2021/10/29 16:26:38;;;;;;;0.10;0.10;;;16.50;77.60;;;;;;5102784;28;20028;-38
2021/10/29 16:29:07;;;;;;;0.20;0.10;;;16.50;77.60;;;;;;5102838;28;20032;-37
2021/10/29 16:31:41;;;;;;;0.10;0.10;;;16.50;77.60;;;;;;5102893;28;20324;-37
2021/10/29 16:34:07;;;;;;;0.10;0.10;;;16.50;77.50;;;;;;5102818;28;20023;-38
2021/10/29 16:36:34;;;;;;;0.10;0.10;;;16.50;77.50;;;;;;5102066;28;20791;-38
2021/10/29 16:39:00;;;;;;;0.10;0.10;;;16.50;77.50;;;;;;5102663;28;20060;-38
2021/10/29 16:41:26;;;;;;;0.10;0.10;;;16.50;77.50;;;;;;5102763;28;20028;-37
2021/10/29 16:43:52;;;;;;;0.00;0.00;;;16.50;77.50;;;;;;5102804;28;20031;-38
2021/10/29 16:46:19;;;;;;;0.20;0.10;;;16.50;77.40;;;;;;5101632;28;20077;-37
2021/10/29 16:48:45;;;;;;;0.20;0.10;;;16.50;77.50;;;;;;5082549;28;20694;-38
2021/10/29 16:51:14;;;;;;;0.10;0.10;;;16.50;77.60;;;;;;5095671;28;20031;-37
2021/10/29 16:53:40;;;;;;;1.08;0.10;;;16.50;77.60;;;;;;5104977;28;20115;-37
2021/10/29 16:56:06;;;;;;;0.20;0.20;;;16.50;77.70;;;;;;5106773;28;20754;-37
2021/10/29 16:58:32;;;;;;;0.10;0.10;;;16.50;77.70;;;;;;5106474;28;20043;-38
2021/10/29 17:00:59;;;;;;;0.08;0.08;;;16.50;77.70;;;;;;5106740;28;20024;-38
2021/10/29 17:03:25;;;;;;;0.10;0.10;;;16.50;77.70;;;;;;5096641;28;20604;-37
2021/10/29 17:05:51;;;;;;;0.15;0.10;;;16.50;77.70;;;;;;5090447;28;20028;-37
2021/10/29 17:08:18;;;;;;;0.20;0.10;;;16.50;77.70;;;;;;5106225;28;20063;-38
2021/10/29 17:10:44;;;;;;;0.10;0.10;;;16.50;77.70;;;;;;5106413;28;20047;-37
2021/10/29 17:13:10;;;;;;;0.10;0.10;;;16.60;77.70;;;;;;5106492;28;20028;-37
2021/10/29 17:15:36;;;;;;;0.10;0.10;;;16.60;77.70;;;;;;5106587;28;20024;-37
2021/10/29 17:18:04;;;;;;;0.10;0.10;;;16.60;77.80;;;;;;5106093;28;20035;-37
2021/10/29 17:20:30;;;;;;;0.15;0.15;;;16.60;77.80;;;;;;5106419;28;20020;-37
2021/10/29 17:22:56;;;;;;;0.32;0.13;;;16.60;77.70;;;;;;5106320;28;20024;-37
2021/10/29 17:25:22;;;;;;;0.08;0.08;;;16.60;77.70;;;;;;5105538;28;20028;-37
2021/10/29 17:27:48;;;;;;;0.10;0.10;;;16.60;77.80;;;;;;5106043;28;20052;-37
2021/10/29 17:30:15;;;;;;;0.73;0.00;;;16.60;77.80;;;;;;5106331;28;20028;-37
2021/10/29 17:32:43;;;;;;;0.10;0.10;;;16.60;77.90;;;;;;5106111;28;20087;-37
2021/10/29 17:35:09;;;;;;;0.10;0.10;;;16.60;77.90;;;;;;5106213;28;20028;-37
2021/10/29 17:37:35;;;;;;;0.10;0.10;;;16.60;77.90;;;;;;5105693;28;20044;-37
2021/10/29 17:40:03;;;;;;;0.10;0.10;;;16.70;78.00;;;;;;5105875;28;20039;-37
2021/10/29 17:42:30;;;;;;;0.38;0.10;;;16.70;78.10;;;;;;5104619;28;20099;-37
2021/10/29 17:44:56;;;;;;;0.10;0.10;;;16.70;78.10;;;;;;5105536;28;20070;-38
2021/10/29 17:47:25;;;;;;;0.20;0.10;;;16.70;78.10;;;;;;5105404;28;20525;-37
2021/10/29 17:49:52;;;;;;;0.10;0.10;;;16.70;78.10;;;;;;5105457;28;20028;-37
2021/10/29 17:52:19;;;;;;;0.50;0.10;;;16.70;78.20;;;;;;5105724;28;20036;-37